Time;durP1;ratioP1;P1;durP2;ratioP2;P2;SDS_P1;SDS_P2;PMS_P1;PMS_P2;Temp;Humidity;BMP_temperature;BMP_pressure;BME280_temperature;BME280_humidity;BME280_pressure;Samples;Min_cycle;Max_cycle;Signal;HPM_P1;HPM_P2
2021/08/17 00:01:09;;;;;;;13.05;9.33;;;;;;;23.49;53.90;100121.59;1719340;81;21008;-69
2021/08/17 00:03:36;;;;;;;16.77;11.08;;;;;;;23.47;54.03;100119.13;1718586;81;22075;-65
2021/08/17 00:06:04;;;;;;;13.28;9.73;;;;;;;23.46;53.88;100115.30;1720208;81;21224;-66
2021/08/17 00:08:31;;;;;;;12.05;9.70;;;;;;;23.43;54.07;100117.89;1725235;81;21521;-65
2021/08/17 00:10:59;;;;;;;14.53;10.32;;;;;;;23.42;54.24;100118.94;1715422;81;21048;-65
2021/08/17 00:13:26;;;;;;;12.85;9.25;;;;;;;23.40;54.31;100114.28;1693867;83;21062;-66
2021/08/17 00:15:52;;;;;;;17.90;10.23;;;;;;;23.38;54.10;100112.34;1714833;81;21107;-68
2021/08/17 00:18:20;;;;;;;15.63;10.32;;;;;;;23.37;54.40;100110.17;1718096;81;21022;-66
2021/08/17 00:20:47;;;;;;;15.48;10.18;;;;;;;23.34;54.51;100111.13;1718961;81;21052;-67
2021/08/17 00:23:15;;;;;;;13.15;10.23;;;;;;;23.33;54.61;100113.50;1717239;81;21098;-67
2021/08/17 00:25:43;;;;;;;15.40;9.45;;;;;;;23.30;54.70;100111.23;1717569;81;21161;-65
2021/08/17 00:28:11;;;;;;;12.95;9.45;;;;;;;23.28;54.55;100120.84;1717780;81;21046;-68
2021/08/17 00:30:39;;;;;;;13.58;10.28;;;;;;;23.27;54.44;100111.69;1718623;81;21050;-65
2021/08/17 00:33:05;;;;;;;17.35;10.68;;;;;;;23.26;54.84;100114.05;1718605;81;21542;-68
2021/08/17 00:35:32;;;;;;;22.67;12.37;;;;;;;23.23;55.21;100114.47;1719444;81;21144;-65
2021/08/17 00:38:01;;;;;;;20.25;12.18;;;;;;;23.22;55.68;100112.81;1695503;81;21727;-65
2021/08/17 00:40:28;;;;;;;17.37;11.40;;;;;;;23.21;56.25;100115.20;1667018;83;21552;-66
2021/08/17 00:42:54;;;;;;;18.57;10.15;;;;;;;23.23;56.49;100106.42;1701914;82;21144;-64
2021/08/17 00:45:23;;;;;;;15.45;10.10;;;;;;;23.30;56.87;100112.58;1740207;80;21339;-66
2021/08/17 00:47:54;;;;;;;20.15;11.55;;;;;;;23.35;56.66;100113.60;1741146;80;21101;-65
2021/08/17 00:50:30;;;;;;;24.43;11.95;;;;;;;23.40;58.03;100110.25;1739502;80;21398;-66
2021/08/17 00:52:57;;;;;;;17.25;11.55;;;;;;;23.45;58.79;100112.30;1733939;80;21070;-65
2021/08/17 00:55:23;;;;;;;20.30;12.68;;;;;;;23.47;59.01;100111.56;1713531;82;22108;-66
2021/08/17 00:57:50;;;;;;;19.32;12.18;;;;;;;23.50;59.26;100111.98;1717382;82;21136;-65
2021/08/17 01:00:18;;;;;;;17.32;11.95;;;;;;;23.51;58.65;100111.45;1742422;80;21609;-65
2021/08/17 01:02:44;;;;;;;19.23;11.73;;;;;;;23.50;58.16;100108.45;1747526;80;21079;-67
2021/08/17 01:05:11;;;;;;;16.32;11.95;;;;;;;23.49;58.44;100111.67;1743383;80;21072;-66
2021/08/17 01:07:38;;;;;;;17.50;11.43;;;;;;;23.46;58.94;100116.13;1744543;80;23334;-66
2021/08/17 01:10:06;;;;;;;13.53;10.55;;;;;;;23.42;59.01;100114.91;1741610;80;21718;-65
2021/08/17 01:12:34;;;;;;;15.70;11.48;;;;;;;23.42;57.96;100117.59;1743045;80;21027;-66
2021/08/17 01:15:02;;;;;;;14.45;10.75;;;;;;;23.46;57.24;100112.63;1706970;82;21671;-65
2021/08/17 01:17:30;;;;;;;13.35;10.70;;;;;;;23.47;56.88;100110.22;1700610;82;21627;-66
2021/08/17 01:19:57;;;;;;;18.48;11.75;;;;;;;23.46;57.00;100114.78;1741525;80;21208;-65
2021/08/17 01:22:23;;;;;;;16.55;11.15;;;;;;;23.42;56.68;100110.89;1743828;80;21616;-69
2021/08/17 01:24:50;;;;;;;15.48;11.65;;;;;;;23.41;56.47;100111.91;1741433;80;21066;-65
2021/08/17 01:27:16;;;;;;;13.90;10.70;;;;;;;23.36;56.36;100109.05;1740287;80;21605;-66
2021/08/17 01:29:43;;;;;;;13.05;10.88;;;;;;;23.33;56.51;100118.37;1741270;80;21445;-66
2021/08/17 01:32:14;;;;;;;15.28;11.12;;;;;;;23.28;56.50;100110.10;1740433;80;21067;-67
2021/08/17 01:34:39;;;;;;;15.15;11.35;;;;;;;23.23;56.76;100113.94;1736086;80;21123;-68
2021/08/17 01:37:08;;;;;;;16.00;11.25;;;;;;;23.19;56.80;100113.55;1739571;80;21047;-68
2021/08/17 01:39:34;;;;;;;18.07;12.23;;;;;;;23.17;56.87;100112.13;1741429;80;21101;-66
2021/08/17 01:42:02;;;;;;;16.15;11.75;;;;;;;23.12;56.87;100114.10;1711183;82;21070;-66
2021/08/17 01:44:28;;;;;;;16.37;11.63;;;;;;;23.08;56.95;100110.70;1698571;82;21221;-66
2021/08/17 01:46:54;;;;;;;15.20;11.03;;;;;;;23.04;56.90;100114.30;1699336;82;21091;-67
2021/08/17 01:49:21;;;;;;;14.98;11.22;;;;;;;23.00;56.66;100112.56;1696879;82;21059;-65
2021/08/17 01:51:48;;;;;;;15.18;10.88;;;;;;;22.96;56.90;100119.40;1674842;84;21569;-65
2021/08/17 01:54:14;;;;;;;14.93;11.28;;;;;;;22.92;57.33;100114.66;1674826;82;21556;-65
2021/08/17 01:56:42;;;;;;;15.53;11.38;;;;;;;22.92;57.33;100107.95;1673644;82;21159;-65
2021/08/17 01:59:12;;;;;;;15.70;11.05;;;;;;;22.96;57.38;100111.34;1691869;82;21056;-65
2021/08/17 02:01:37;;;;;;;15.60;11.00;;;;;;;22.97;57.23;100109.48;1693974;82;21917;-66
2021/08/17 02:04:04;;;;;;;15.45;10.85;;;;;;;22.96;57.20;100107.82;1698977;82;21569;-65
2021/08/17 02:06:30;;;;;;;14.68;11.38;;;;;;;22.96;57.28;100111.84;1699601;82;21588;-67
2021/08/17 02:08:57;;;;;;;15.05;12.23;;;;;;;22.95;57.09;100109.69;1691388;82;21078;-66
2021/08/17 02:11:23;;;;;;;16.20;11.30;;;;;;;22.96;56.84;100109.16;1680165;82;21069;-65
2021/08/17 02:13:51;;;;;;;16.80;11.50;;;;;;;22.94;56.85;100103.19;1696869;82;21090;-66
2021/08/17 02:16:19;;;;;;;13.58;11.22;;;;;;;22.95;56.66;100102.17;1674958;82;21168;-65
2021/08/17 02:18:45;;;;;;;13.72;10.40;;;;;;;22.93;56.47;100105.06;1675454;82;22200;-65
2021/08/17 02:21:13;;;;;;;14.75;10.25;;;;;;;22.92;56.53;100095.34;1697130;82;21063;-65
2021/08/17 02:23:39;;;;;;;16.02;11.03;;;;;;;22.89;56.54;100090.92;1697866;82;21046;-65
2021/08/17 02:26:06;;;;;;;13.53;10.20;;;;;;;22.86;56.88;100095.37;1677043;82;21070;-65
2021/08/17 02:28:32;;;;;;;13.40;10.65;;;;;;;22.84;57.40;100097.44;1695313;82;21066;-66
2021/08/17 02:30:58;;;;;;;14.47;10.65;;;;;;;22.80;57.75;100096.52;1696958;82;21505;-66
2021/08/17 02:33:25;;;;;;;15.05;10.38;;;;;;;22.80;57.56;100087.66;1697287;82;21138;-66
2021/08/17 02:35:51;;;;;;;16.25;10.98;;;;;;;22.85;57.18;100093.70;1700022;82;21829;-66
2021/08/17 02:38:18;;;;;;;11.78;9.73;;;;;;;22.87;57.04;100094.34;1701122;82;21067;-66
2021/08/17 02:40:45;;;;;;;17.37;11.18;;;;;;;22.88;57.03;100093.29;1707319;81;21055;-65
2021/08/17 02:43:11;;;;;;;18.40;9.65;;;;;;;22.85;56.92;100093.21;1694914;81;21057;-65
2021/08/17 02:45:37;;;;;;;16.82;10.68;;;;;;;22.86;56.89;100093.50;1693981;82;21505;-66
2021/08/17 02:48:05;;;;;;;13.22;10.08;;;;;;;22.85;56.73;100095.89;1733814;81;22204;-65
2021/08/17 02:50:32;;;;;;;12.60;9.68;;;;;;;22.82;56.58;100098.47;1695967;81;21087;-65
2021/08/17 02:53:00;;;;;;;27.20;15.95;;;;;;;22.82;56.82;100098.99;1730694;81;21439;-65
2021/08/17 02:55:26;;;;;;;36.58;20.20;;;;;;;22.78;56.78;100093.23;1704471;81;21099;-66
2021/08/17 02:57:57;;;;;;;43.13;25.62;;;;;;;22.76;56.91;100093.96;1732586;81;21021;-67
2021/08/17 03:00:23;;;;;;;33.85;20.05;;;;;;;22.73;57.08;100093.53;1698161;82;21088;-65
2021/08/17 03:02:50;;;;;;;24.50;15.80;;;;;;;22.72;56.85;100100.77;1731171;81;21095;-68
2021/08/17 03:05:16;;;;;;;26.97;18.50;;;;;;;22.70;56.95;100089.95;1727819;81;21506;-67
2021/08/17 03:07:53;;;;;;;32.30;19.42;;;;;;;22.67;57.26;100093.05;1733042;81;21042;-66
2021/08/17 03:10:21;;;;;;;29.27;17.85;;;;;;;22.63;57.23;100088.10;1729566;81;21233;-66
2021/08/17 03:12:49;;;;;;;20.52;12.65;;;;;;;22.62;57.43;100090.46;1728948;81;21051;-66
2021/08/17 03:15:16;;;;;;;17.73;12.28;;;;;;;22.61;57.56;100088.83;1734309;81;21082;-67
2021/08/17 03:17:43;;;;;;;20.75;12.53;;;;;;;22.63;57.95;100083.27;1722208;81;21128;-66
2021/08/17 03:20:13;;;;;;;18.32;11.97;;;;;;;22.70;57.81;100076.02;1729812;81;21513;-66
2021/08/17 03:22:39;;;;;;;23.73;12.43;;;;;;;22.78;57.65;100077.14;1725669;81;21762;-67
2021/08/17 03:25:08;;;;;;;18.37;12.98;;;;;;;22.84;57.58;100079.48;1727086;81;21006;-66
2021/08/17 03:27:35;;;;;;;18.27;12.98;;;;;;;22.87;57.97;100076.38;1725110;81;21070;-65
2021/08/17 03:30:07;;;;;;;17.57;11.80;;;;;;;22.90;57.81;100072.47;1731590;81;21078;-66
2021/08/17 03:32:33;;;;;;;20.37;12.55;;;;;;;22.94;57.75;100080.38;1726587;81;21062;-66
2021/08/17 03:35:00;;;;;;;18.10;12.70;;;;;;;22.98;57.96;100080.25;1729224;81;22138;-65
2021/08/17 03:37:27;;;;;;;19.42;14.53;;;;;;;22.98;57.77;100078.42;1728120;81;21074;-65
2021/08/17 03:39:54;;;;;;;24.05;13.43;;;;;;;22.99;57.63;100079.23;1729188;81;21049;-65
2021/08/17 03:42:22;;;;;;;16.73;11.75;;;;;;;23.01;57.96;100075.81;1721982;82;22499;-65
2021/08/17 03:44:49;;;;;;;19.37;12.03;;;;;;;23.02;57.98;100079.34;1709524;82;21036;-67
2021/08/17 03:47:16;;;;;;;15.88;10.85;;;;;;;23.02;58.06;100073.97;1711660;82;21148;-66
2021/08/17 03:49:42;;;;;;;16.80;11.70;;;;;;;23.03;58.04;100074.27;1710006;82;22361;-67
2021/08/17 03:52:08;;;;;;;15.25;10.68;;;;;;;23.05;58.26;100077.55;1709682;82;21077;-65
2021/08/17 03:54:35;;;;;;;17.67;10.48;;;;;;;23.08;58.41;100077.16;1713132;82;21353;-66
2021/08/17 03:57:03;;;;;;;15.35;10.48;;;;;;;23.16;58.25;100077.73;1681004;82;21121;-67
2021/08/17 03:59:31;;;;;;;18.80;10.88;;;;;;;23.23;58.23;100080.39;1712882;82;21685;-68
2021/08/17 04:01:57;;;;;;;16.75;11.10;;;;;;;23.30;57.94;100079.02;1713488;82;21070;-67
2021/08/17 04:04:24;;;;;;;14.70;10.05;;;;;;;23.35;57.87;100077.36;1712525;81;21093;-66
2021/08/17 04:06:52;;;;;;;13.18;9.93;;;;;;;23.39;57.65;100081.77;1715146;82;21074;-65
2021/08/17 04:09:19;;;;;;;15.30;10.13;;;;;;;23.44;57.59;100085.98;1714929;81;21169;-65
2021/08/17 04:11:47;;;;;;;14.07;9.73;;;;;;;23.47;57.19;100081.53;1715285;82;21052;-65
2021/08/17 04:14:13;;;;;;;12.78;9.63;;;;;;;23.49;57.09;100082.13;1712157;82;21572;-66
2021/08/17 04:16:40;;;;;;;13.32;9.98;;;;;;;23.51;57.34;100083.27;1682691;82;21074;-66
2021/08/17 04:19:06;;;;;;;14.55;9.95;;;;;;;23.52;57.04;100086.27;1710484;82;21149;-67
2021/08/17 04:21:32;;;;;;;16.62;10.70;;;;;;;23.53;57.33;100090.58;1710212;82;21057;-66
2021/08/17 04:24:00;;;;;;;14.00;9.63;;;;;;;23.54;57.28;100083.65;1714955;81;21127;-66
2021/08/17 04:26:27;;;;;;;12.25;9.58;;;;;;;23.54;56.94;100086.34;1717810;82;21031;-65
2021/08/17 04:28:54;;;;;;;17.60;10.40;;;;;;;23.55;56.75;100089.34;1684213;83;21038;-65
2021/08/17 04:31:20;;;;;;;12.55;9.50;;;;;;;23.55;56.69;100082.62;1717968;82;21038;-66
2021/08/17 04:33:47;;;;;;;15.90;9.88;;;;;;;23.57;56.65;100086.44;1709475;82;21168;-68
2021/08/17 04:36:13;;;;;;;14.07;10.60;;;;;;;23.59;56.85;100087.04;1719635;82;21158;-66
2021/08/17 04:38:39;;;;;;;14.80;9.80;;;;;;;23.62;56.54;100091.14;1715290;82;21081;-66
2021/08/17 04:41:07;;;;;;;14.83;10.60;;;;;;;23.69;56.39;100091.41;1712127;81;21130;-65
2021/08/17 04:43:33;;;;;;;13.48;9.95;;;;;;;23.73;56.09;100093.95;1744869;80;21090;-67
2021/08/17 04:46:00;;;;;;;16.05;12.47;;;;;;;23.77;56.15;100098.91;1743020;80;21039;-67
2021/08/17 04:48:26;;;;;;;13.68;9.28;;;;;;;23.79;55.74;100100.34;1743535;80;21146;-65
2021/08/17 04:50:53;;;;;;;14.30;9.85;;;;;;;23.79;56.04;100099.00;1743687;80;21034;-65
2021/08/17 04:53:19;;;;;;;13.62;9.65;;;;;;;23.83;56.04;100107.48;1714240;82;21296;-66
2021/08/17 04:56:54;;;;;;;12.13;9.53;;;;;;;23.89;56.20;100100.72;1795607;78;22656;-64
2021/08/17 04:59:20;;;;;;;14.65;10.13;;;;;;;23.85;55.80;100104.86;1775292;78;21039;-65
2021/08/17 05:01:49;;;;;;;13.53;10.10;;;;;;;23.86;56.00;100105.18;1766759;80;21409;-66
2021/08/17 05:04:16;;;;;;;15.55;10.45;;;;;;;23.88;56.14;100107.12;1775000;80;21090;-69
2021/08/17 05:06:42;;;;;;;13.18;9.33;;;;;;;23.91;56.23;100107.22;1773478;79;21601;-66
2021/08/17 05:09:09;;;;;;;16.90;9.88;;;;;;;23.93;56.29;100109.16;1775452;80;21034;-66
2021/08/17 05:11:37;;;;;;;12.43;9.30;;;;;;;23.96;56.28;100107.92;1779834;80;21086;-67
2021/08/17 05:14:07;;;;;;;12.40;9.00;;;;;;;23.98;56.13;100117.92;1772193;79;21007;-69
2021/08/17 05:16:34;;;;;;;17.40;10.58;;;;;;;23.98;56.08;100113.89;1753152;80;20998;-67
2021/08/17 05:19:01;;;;;;;14.63;10.38;;;;;;;23.99;55.99;100116.37;1767752;80;21104;-68
2021/08/17 05:21:28;;;;;;;13.58;9.65;;;;;;;24.07;56.14;100117.95;1774804;78;21073;-67
2021/08/17 05:23:56;;;;;;;11.08;9.13;;;;;;;24.19;56.16;100113.53;1768232;79;21490;-68
2021/08/17 05:26:24;;;;;;;13.58;8.83;;;;;;;24.32;56.05;100121.17;1746803;80;21203;-66
2021/08/17 05:28:52;;;;;;;12.18;9.45;;;;;;;24.39;55.66;100113.86;1715144;81;21056;-65
2021/08/17 05:31:21;;;;;;;12.70;9.65;;;;;;;24.46;55.55;100116.80;1688960;83;21180;-67
2021/08/17 05:33:47;;;;;;;12.88;9.53;;;;;;;24.53;55.26;100111.87;1727941;81;21121;-66
2021/08/17 05:36:15;;;;;;;15.45;10.13;;;;;;;24.58;54.98;100108.86;1686688;82;21105;-66
2021/08/17 05:38:41;;;;;;;12.75;9.58;;;;;;;24.64;55.26;100105.80;1694775;81;21264;-67
2021/08/17 05:41:09;;;;;;;11.75;9.00;;;;;;;24.71;54.79;100113.80;1717563;81;21029;-64
2021/08/17 05:43:37;;;;;;;12.90;9.10;;;;;;;24.76;54.57;100109.92;1736274;81;21035;-65
2021/08/17 05:46:05;;;;;;;12.70;8.50;;;;;;;24.81;53.98;100114.95;1739102;81;21117;-65
2021/08/17 05:48:33;;;;;;;14.47;9.70;;;;;;;24.88;53.77;100114.87;1719590;82;21107;-65
2021/08/17 05:51:00;;;;;;;14.07;9.83;;;;;;;24.91;53.32;100113.06;1701854;82;21156;-64
2021/08/17 05:53:28;;;;;;;15.03;9.58;;;;;;;24.95;53.69;100114.27;1708379;81;21063;-66
2021/08/17 05:55:55;;;;;;;13.62;10.38;;;;;;;25.00;52.95;100117.11;1683930;82;21122;-65
2021/08/17 05:58:21;;;;;;;13.85;9.15;;;;;;;25.09;52.85;100114.13;1671401;83;21058;-62
2021/08/17 06:00:47;;;;;;;15.88;11.18;;;;;;;25.16;52.66;100110.28;1731171;80;21422;-64
2021/08/17 06:03:14;;;;;;;11.65;8.93;;;;;;;25.24;52.54;100113.21;1727865;81;21123;-67
2021/08/17 06:05:40;;;;;;;14.03;11.45;;;;;;;25.30;52.42;100112.34;1704675;81;21517;-63
2021/08/17 06:08:07;;;;;;;16.90;9.33;;;;;;;25.37;52.15;100114.42;1725233;81;21059;-64
2021/08/17 06:10:33;;;;;;;16.15;12.25;;;;;;;25.44;51.88;100119.72;1725329;80;21126;-64
2021/08/17 06:13:00;;;;;;;16.10;11.50;;;;;;;25.53;52.32;100114.30;1703925;82;21059;-66
2021/08/17 06:15:27;;;;;;;16.95;10.23;;;;;;;25.60;51.74;100116.91;1730948;81;21072;-67
2021/08/17 06:17:54;;;;;;;17.27;12.93;;;;;;;25.67;51.35;100116.30;1729482;80;21546;-65
2021/08/17 06:20:22;;;;;;;16.67;10.70;;;;;;;25.75;50.90;100108.41;1712173;81;21625;-66
2021/08/17 06:22:48;;;;;;;13.55;11.80;;;;;;;25.81;50.52;100103.98;1730234;80;21064;-67
2021/08/17 06:25:15;;;;;;;18.25;14.68;;;;;;;25.87;50.41;100101.70;1708747;82;21445;-66
2021/08/17 06:27:42;;;;;;;14.80;11.08;;;;;;;25.93;50.23;100106.17;1733088;80;21127;-64
2021/08/17 06:30:09;;;;;;;20.60;14.93;;;;;;;26.01;50.85;100100.48;1726550;81;21688;-63
2021/08/17 06:32:36;;;;;;;13.85;11.12;;;;;;;26.09;50.74;100100.15;1711242;81;21113;-64
2021/08/17 06:35:04;;;;;;;15.78;10.55;;;;;;;26.17;50.09;100104.89;1730722;80;21134;-65
2021/08/17 06:37:32;;;;;;;13.62;9.70;;;;;;;26.24;49.88;100104.25;1706449;82;21022;-65
2021/08/17 06:39:58;;;;;;;15.05;11.93;;;;;;;26.30;49.88;100099.28;1721416;81;22261;-65
2021/08/17 06:42:25;;;;;;;13.32;11.48;;;;;;;26.38;49.31;100095.40;1728436;81;21071;-68
2021/08/17 06:44:51;;;;;;;15.32;11.95;;;;;;;26.43;49.21;100099.05;1713785;82;21510;-63
2021/08/17 06:47:17;;;;;;;11.18;9.18;;;;;;;26.51;49.11;100098.70;1732826;81;21570;-63
2021/08/17 06:49:44;;;;;;;18.07;14.68;;;;;;;26.59;49.79;100100.75;1732739;80;21047;-67
2021/08/17 06:52:12;;;;;;;14.03;10.82;;;;;;;26.68;49.72;100096.68;1728210;80;21169;-63
2021/08/17 06:54:38;;;;;;;12.03;9.88;;;;;;;26.76;49.30;100097.64;1703761;80;21533;-64
2021/08/17 06:57:05;;;;;;;14.53;11.10;;;;;;;26.83;48.85;100095.66;1734425;80;21044;-63
2021/08/17 06:59:32;;;;;;;14.07;9.60;;;;;;;26.91;48.60;100082.84;1735325;81;21050;-64
2021/08/17 07:01:58;;;;;;;14.98;10.23;;;;;;;26.99;47.73;100085.98;1682890;83;21062;-68
2021/08/17 07:04:24;;;;;;;13.78;9.63;;;;;;;27.07;47.74;100084.80;1740946;81;21137;-65
2021/08/17 07:06:51;;;;;;;13.90;10.70;;;;;;;27.14;47.34;100081.97;1740427;80;21046;-64
2021/08/17 07:09:17;;;;;;;17.92;9.60;;;;;;;27.21;47.21;100079.94;1737844;81;21763;-65
2021/08/17 07:11:44;;;;;;;11.65;9.08;;;;;;;27.29;47.36;100076.08;1650946;83;21086;-65
2021/08/17 07:14:10;;;;;;;14.85;10.95;;;;;;;27.36;47.23;100075.39;1655732;83;21587;-67
2021/08/17 07:16:36;;;;;;;14.45;10.10;;;;;;;27.44;47.54;100066.90;1683024;82;21162;-65
2021/08/17 07:19:04;;;;;;;10.95;9.25;;;;;;;27.54;47.66;100071.14;1681293;83;21811;-65
2021/08/17 07:21:30;;;;;;;13.80;10.75;;;;;;;27.63;47.50;100074.26;1681100;83;21051;-63
2021/08/17 07:23:56;;;;;;;11.33;8.93;;;;;;;27.74;47.12;100069.83;1679645;83;21590;-64
2021/08/17 07:26:22;;;;;;;13.22;11.12;;;;;;;27.82;46.93;100071.33;1677379;83;21075;-64
2021/08/17 07:28:49;;;;;;;16.67;13.08;;;;;;;27.87;46.21;100072.77;1652199;84;21246;-64
2021/08/17 07:31:15;;;;;;;13.50;10.68;;;;;;;27.93;46.10;100073.98;1731339;81;21747;-65
2021/08/17 07:33:44;;;;;;;12.68;9.35;;;;;;;28.01;45.73;100071.42;1729975;81;22245;-67
2021/08/17 07:36:11;;;;;;;13.18;11.33;;;;;;;28.09;45.56;100072.88;1733968;81;21055;-66
2021/08/17 07:38:38;;;;;;;12.33;10.32;;;;;;;28.17;44.84;100065.16;1732808;81;21087;-66
2021/08/17 07:41:04;;;;;;;11.68;9.05;;;;;;;28.25;44.44;100065.28;1735836;80;21158;-64
2021/08/17 07:43:32;;;;;;;14.65;11.03;;;;;;;28.34;44.09;100071.09;1736653;80;21059;-67
2021/08/17 07:45:58;;;;;;;12.75;9.03;;;;;;;28.40;44.19;100066.05;1705807;82;21126;-66
2021/08/17 07:48:25;;;;;;;12.25;8.35;;;;;;;28.48;43.99;100074.26;1733778;80;22161;-66
2021/08/17 07:50:51;;;;;;;14.75;9.58;;;;;;;28.55;44.20;100072.22;1705102;81;21058;-65
2021/08/17 07:53:18;;;;;;;10.00;7.10;;;;;;;28.63;43.39;100069.11;1731834;81;21158;-65
2021/08/17 07:55:46;;;;;;;12.85;9.08;;;;;;;28.69;42.75;100069.98;1675997;83;21082;-64
2021/08/17 07:58:12;;;;;;;13.00;9.73;;;;;;;28.76;42.63;100077.92;1724756;80;20928;-65
2021/08/17 08:00:39;;;;;;;14.00;10.30;;;;;;;28.83;41.58;100072.62;1729928;81;20975;-65
2021/08/17 08:03:05;;;;;;;18.15;9.35;;;;;;;28.92;41.34;100070.28;1728713;81;20916;-66
2021/08/17 08:05:31;;;;;;;12.80;8.30;;;;;;;28.99;41.02;100074.16;1723708;81;21883;-65
2021/08/17 08:07:58;;;;;;;9.85;7.03;;;;;;;29.07;41.49;100073.72;1729138;81;20906;-65
2021/08/17 08:10:24;;;;;;;11.93;8.28;;;;;;;29.15;41.19;100070.56;1726997;80;21425;-65
2021/08/17 08:12:52;;;;;;;10.55;8.13;;;;;;;29.22;40.84;100060.91;1703588;81;21064;-67
2021/08/17 08:15:19;;;;;;;13.18;6.90;;;;;;;29.30;40.18;100066.40;1723500;81;21099;-67
2021/08/17 08:17:46;;;;;;;11.18;7.15;;;;;;;29.35;39.86;100056.42;1708806;81;21115;-66
2021/08/17 08:20:14;;;;;;;9.98;6.67;;;;;;;29.43;39.53;100060.02;1728571;81;21067;-66
2021/08/17 08:22:41;;;;;;;9.75;6.92;;;;;;;29.50;39.15;100063.89;1729777;80;21067;-68
2021/08/17 08:25:10;;;;;;;14.03;7.70;;;;;;;29.56;38.95;100057.45;1725524;80;21088;-65
2021/08/17 08:27:36;;;;;;;11.50;7.72;;;;;;;29.62;39.16;100065.92;1724638;80;21546;-65
2021/08/17 08:30:05;;;;;;;16.07;9.08;;;;;;;29.69;38.77;100049.95;1732611;81;20916;-66
2021/08/17 08:32:32;;;;;;;11.48;7.08;;;;;;;29.77;39.31;100047.65;1725972;81;20916;-65
2021/08/17 08:34:59;;;;;;;7.90;6.05;;;;;;;29.81;38.85;100047.39;1733884;80;21187;-65
2021/08/17 08:37:25;;;;;;;10.18;6.53;;;;;;;29.87;38.97;100043.37;1708715;82;21349;-67
2021/08/17 08:39:53;;;;;;;11.63;6.70;;;;;;;29.92;39.46;100045.56;1714257;80;21015;-65
2021/08/17 08:42:20;;;;;;;10.55;6.87;;;;;;;29.98;39.13;100041.83;1670146;83;21140;-66
2021/08/17 08:44:46;;;;;;;10.72;7.55;;;;;;;30.05;39.61;100034.83;1666723;84;21906;-67
2021/08/17 08:47:17;;;;;;;14.43;7.47;;;;;;;30.12;39.41;100038.66;1725603;80;21083;-65
2021/08/17 08:49:44;;;;;;;9.40;6.53;;;;;;;30.19;38.97;100029.23;1699483;82;21091;-65
2021/08/17 08:52:12;;;;;;;11.05;6.72;;;;;;;30.25;38.47;100035.50;1714125;81;21067;-65
2021/08/17 08:54:39;;;;;;;8.63;6.20;;;;;;;30.31;38.50;100032.27;1728017;80;21126;-65
2021/08/17 08:57:05;;;;;;;8.83;6.00;;;;;;;30.36;39.10;100033.68;1727925;80;21063;-65
2021/08/17 08:59:32;;;;;;;8.88;6.72;;;;;;;30.44;39.43;100041.33;1726366;80;21032;-64
2021/08/17 09:02:12;;;;;;;12.10;6.72;;;;;;;30.52;38.42;100035.95;1709844;81;21103;-64
2021/08/17 09:04:51;;;;;;;9.18;6.30;;;;;;;30.61;38.68;100038.97;1734816;80;21345;-66
2021/08/17 09:07:42;;;;;;;9.78;6.22;;;;;;;30.67;37.33;100044.16;1725559;80;23284;-64
2021/08/17 09:10:26;;;;;;;8.33;5.85;;;;;;;30.70;38.38;100044.19;1694543;83;21044;-67
2021/08/17 09:12:58;;;;;;;11.33;6.53;;;;;;;30.73;38.46;100042.27;1727392;81;21047;-65
2021/08/17 09:15:32;;;;;;;9.15;5.75;;;;;;;30.78;38.71;100036.86;1722323;82;21530;-63
2021/08/17 09:18:08;;;;;;;15.60;6.03;;;;;;;30.88;36.74;100043.72;1710758;82;21573;-64
2021/08/17 09:20:43;;;;;;;14.03;5.95;;;;;;;30.98;36.37;100045.66;1725120;80;21884;-66
2021/08/17 09:23:29;;;;;;;8.33;4.85;;;;;;;31.06;35.67;100040.26;1664532;84;21048;-66
2021/08/17 09:26:00;;;;;;;7.55;5.20;;;;;;;31.14;35.08;100037.02;1723369;81;21506;-67
2021/08/17 09:28:37;;;;;;;9.85;5.65;;;;;;;31.19;35.03;100040.30;1723191;81;21021;-68
2021/08/17 09:31:39;;;;;;;16.85;5.47;;;;;;;31.27;35.08;100043.30;1729714;81;21059;-66
2021/08/17 09:34:08;;;;;;;11.85;5.05;;;;;;;31.33;34.44;100022.92;1707713;82;21106;-66
2021/08/17 09:36:39;;;;;;;8.45;5.05;;;;;;;31.42;34.96;100034.88;1706595;82;21020;-69
2021/08/17 09:39:05;;;;;;;12.40;5.58;;;;;;;31.49;34.76;100030.83;1726907;80;21411;-65
2021/08/17 09:41:32;;;;;;;12.30;6.00;;;;;;;31.60;34.33;100035.74;1724596;81;21083;-65
2021/08/17 09:44:04;;;;;;;12.63;5.58;;;;;;;31.67;34.16;100030.03;1723007;80;22147;-66
2021/08/17 09:46:38;;;;;;;13.83;5.25;;;;;;;31.75;34.50;100021.89;1722183;80;21166;-66
2021/08/17 09:49:30;;;;;;;10.82;5.35;;;;;;;31.82;34.76;100011.53;1724181;80;21153;-66
2021/08/17 09:51:59;;;;;;;9.10;5.78;;;;;;;31.89;34.08;100013.98;1725088;80;21376;-67
2021/08/17 09:54:26;;;;;;;10.28;6.28;;;;;;;31.93;34.81;100007.72;1687010;80;21111;-64
2021/08/17 09:57:00;;;;;;;9.93;5.90;;;;;;;32.02;35.13;100005.25;1706231;81;21102;-65
2021/08/17 09:59:28;;;;;;;11.53;5.97;;;;;;;32.13;35.04;100015.62;1712479;82;21082;-65
2021/08/17 10:01:56;;;;;;;9.15;6.08;;;;;;;32.22;34.13;100012.03;1732401;80;21034;-65
2021/08/17 10:04:22;;;;;;;8.85;5.50;;;;;;;32.31;34.78;100017.75;1730982;80;20923;-65
2021/08/17 10:06:54;;;;;;;11.55;6.53;;;;;;;32.41;34.08;100018.24;1727085;81;21067;-65
2021/08/17 10:09:23;;;;;;;11.00;5.97;;;;;;;32.52;34.17;100008.15;1708513;81;22143;-66
2021/08/17 10:11:50;;;;;;;13.65;5.85;;;;;;;32.64;33.45;100012.75;1733660;80;21194;-67
2021/08/17 10:14:18;;;;;;;7.85;5.33;;;;;;;32.75;32.25;100013.50;1710363;82;21079;-68
2021/08/17 10:16:45;;;;;;;8.80;5.58;;;;;;;32.82;32.80;100028.19;1734037;81;21029;-67
2021/08/17 10:19:17;;;;;;;6.70;5.33;;;;;;;32.88;31.71;100021.06;1698469;82;21546;-67
2021/08/17 10:21:46;;;;;;;11.18;6.50;;;;;;;32.95;32.22;100024.84;1727911;80;21101;-66
2021/08/17 10:24:36;;;;;;;11.03;5.67;;;;;;;32.98;31.71;100022.92;1730655;80;21204;-65
2021/08/17 10:27:28;;;;;;;10.30;5.12;;;;;;;32.98;31.44;100028.38;1732548;80;21247;-68
2021/08/17 10:30:10;;;;;;;9.93;5.17;;;;;;;32.96;31.16;100034.66;1674894;83;21062;-67
2021/08/17 10:32:55;;;;;;;8.18;5.05;;;;;;;32.89;31.08;100032.24;1671761;83;21001;-65
2021/08/17 10:35:32;;;;;;;8.43;5.47;;;;;;;32.81;30.89;100042.92;1671999;83;21091;-65
2021/08/17 10:38:14;;;;;;;8.88;5.87;;;;;;;32.73;31.27;100036.13;1710759;81;21138;-65
2021/08/17 10:40:58;;;;;;;7.75;4.90;;;;;;;32.69;31.83;100039.96;1734390;80;21667;-66
2021/08/17 10:43:33;;;;;;;9.98;5.53;;;;;;;32.70;31.95;100041.61;1708940;82;21651;-65
2021/08/17 10:46:07;;;;;;;8.90;6.53;;;;;;;32.71;32.24;100033.69;1728246;80;21090;-65
2021/08/17 10:48:54;;;;;;;8.38;5.47;;;;;;;32.75;32.29;100038.86;1733021;80;21554;-65
2021/08/17 10:51:33;;;;;;;10.45;6.40;;;;;;;32.80;32.30;100033.94;1713645;81;21042;-67
2021/08/17 10:54:08;;;;;;;10.80;6.42;;;;;;;32.93;32.87;100039.31;1739200;81;22382;-65
2021/08/17 10:56:36;;;;;;;15.65;6.67;;;;;;;33.07;32.41;100028.06;1731718;80;21051;-67
2021/08/17 10:59:03;;;;;;;17.65;6.15;;;;;;;33.25;31.20;100035.34;1694003;81;21031;-65
2021/08/17 11:01:38;;;;;;;27.22;7.25;;;;;;;33.41;30.44;100038.23;1697671;82;21035;-66
2021/08/17 11:04:19;;;;;;;9.28;4.80;;;;;;;33.54;29.80;100035.95;1693625;82;21411;-64
2021/08/17 11:06:55;;;;;;;6.53;4.87;;;;;;;33.58;29.90;100031.02;1717417;81;21647;-65
2021/08/17 11:09:37;;;;;;;10.60;5.45;;;;;;;33.58;29.11;100022.02;1722376;81;21071;-66
2021/08/17 11:12:08;;;;;;;12.25;5.22;;;;;;;33.54;30.04;100029.12;1720571;81;21013;-67
2021/08/17 11:14:36;;;;;;;8.20;5.22;;;;;;;33.51;30.26;100029.97;1686735;83;21031;-66
2021/08/17 11:17:11;;;;;;;8.48;5.55;;;;;;;33.45;29.51;100027.56;1717388;82;21944;-66
2021/08/17 11:19:40;;;;;;;10.50;7.25;;;;;;;33.40;29.70;100022.95;1698800;82;21084;-66
2021/08/17 11:22:10;;;;;;;6.22;4.60;;;;;;;33.42;30.22;100015.86;1689723;82;22311;-66